createdAt,value
2019-02-21T00:00:49.650Z,0.67
2019-02-21T00:03:20.631Z,0.50
2019-02-21T00:05:37.413Z,0.43
2019-02-21T00:08:19.712Z,1.37
2019-02-21T00:10:47.817Z,0.60
2019-02-21T00:13:01.592Z,1.03
2019-02-21T00:15:09.508Z,0.50
2019-02-21T00:17:20.350Z,3.43
2019-02-21T00:19:29.195Z,0.60
2019-02-21T00:22:09.760Z,0.57
2019-02-21T00:24:27.944Z,1.63
2019-02-21T00:26:44.307Z,0.60
2019-02-21T00:29:04.118Z,2.93
2019-02-21T00:31:30.853Z,1.07
2019-02-21T00:33:47.078Z,1.47
2019-02-21T00:36:15.765Z,1.27
2019-02-21T00:38:30.392Z,1.40
2019-02-21T00:40:40.802Z,2.03
2019-02-21T00:43:37.084Z,1.73
2019-02-21T00:46:14.137Z,2.93
2019-02-21T00:48:44.093Z,0.73
2019-02-21T00:50:59.964Z,1.73
2019-02-21T00:53:22.290Z,0.70
2019-02-21T00:55:30.962Z,1.27
2019-02-21T01:03:22.755Z,0.70
2019-02-21T01:05:30.138Z,0.70
2019-02-21T01:07:38.933Z,0.50
2019-02-21T01:09:46.397Z,0.63
2019-02-21T01:11:53.467Z,0.67
2019-02-21T01:14:01.245Z,2.00
2019-02-21T01:16:08.526Z,0.67
2019-02-21T01:18:16.811Z,2.17
2019-02-21T01:20:24.600Z,0.67
2019-02-21T01:22:33.355Z,2.77
2019-02-21T01:24:41.426Z,0.57
2019-02-21T01:26:48.852Z,0.43
2019-02-21T01:28:56.213Z,0.77
2019-02-21T01:31:06.890Z,0.60
2019-02-21T01:33:18.007Z,1.07
2019-02-21T01:38:15.511Z,1.53
2019-02-21T01:40:23.162Z,0.90
2019-02-21T01:45:47.758Z,0.97
2019-02-21T01:48:04.003Z,0.60
2019-02-21T01:50:11.592Z,0.93
2019-02-21T01:52:20.707Z,0.93
2019-02-21T01:54:28.013Z,0.60
2019-02-21T01:56:37.126Z,0.63
2019-02-21T01:58:46.470Z,1.63
2019-02-21T02:00:53.570Z,2.30
2019-02-21T02:03:01.002Z,0.67
2019-02-21T02:05:09.414Z,1.37
2019-02-21T02:07:16.479Z,0.83
2019-02-21T02:09:23.928Z,1.67
2019-02-21T02:11:32.132Z,0.60
2019-02-21T02:13:39.287Z,2.43
2019-02-21T02:15:47.053Z,2.43
2019-02-21T02:17:54.368Z,3.43
2019-02-21T02:20:02.238Z,2.17
2019-02-21T02:22:09.572Z,1.40
2019-02-21T02:24:39.448Z,0.70
2019-02-21T02:26:47.191Z,1.17
2019-02-21T02:28:58.431Z,2.10
2019-02-21T02:31:05.661Z,0.83
2019-02-21T02:33:12.900Z,1.57
2019-02-21T02:35:21.014Z,0.80
2019-02-21T02:37:28.539Z,1.53
2019-02-21T02:39:35.595Z,0.97
2019-02-21T02:41:42.879Z,3.23
2019-02-21T02:43:50.268Z,0.70
2019-02-21T02:45:58.815Z,2.57
2019-02-21T02:48:07.350Z,1.17
2019-02-21T02:50:24.405Z,1.23
2019-02-21T02:52:33.542Z,0.83
2019-02-21T02:54:40.810Z,1.70
2019-02-21T02:56:48.886Z,1.27
2019-02-21T02:58:56.987Z,0.70
2019-02-21T03:01:04.206Z,1.13
2019-02-21T03:03:11.629Z,0.60
2019-02-21T03:05:19.962Z,0.70
2019-02-21T03:07:28.009Z,0.70
2019-02-21T03:09:35.286Z,0.70
2019-02-21T03:11:42.509Z,0.53
2019-02-21T03:13:49.718Z,0.90
2019-02-21T03:15:56.810Z,1.10
2019-02-21T03:18:04.531Z,1.43
2019-02-21T03:20:12.439Z,0.50
2019-02-21T03:22:19.807Z,0.70
2019-02-21T03:24:27.082Z,1.40
2019-02-21T03:26:34.273Z,0.60
2019-02-21T03:28:41.477Z,1.00
2019-02-21T03:30:49.366Z,2.27
2019-02-21T03:32:56.754Z,1.20
2019-02-21T03:35:03.975Z,1.13
2019-02-21T03:37:11.254Z,4.13
2019-02-21T03:39:19.369Z,1.17
2019-02-21T03:41:26.727Z,0.90
2019-02-21T03:43:34.585Z,3.53
2019-02-21T03:45:41.719Z,3.83
2019-02-21T03:47:48.989Z,2.20
2019-02-21T03:49:57.295Z,1.63
2019-02-21T03:52:05.221Z,3.03
2019-02-21T03:54:12.626Z,2.50
2019-02-21T03:56:19.956Z,2.00
2019-02-21T03:58:28.209Z,5.20
2019-02-21T04:00:35.428Z,2.73
2019-02-21T04:02:43.213Z,1.57
2019-02-21T04:04:50.572Z,2.93
2019-02-21T04:06:57.654Z,2.60
2019-02-21T04:09:06.661Z,1.87
2019-02-21T04:11:13.956Z,2.97
2019-02-21T04:13:21.895Z,5.20
2019-02-21T04:15:29.212Z,3.27
2019-02-21T04:17:37.882Z,3.57
2019-02-21T04:19:46.647Z,3.13
2019-02-21T04:21:55.270Z,3.23
2019-02-21T04:24:02.761Z,2.83
2019-02-21T04:26:10.690Z,2.37
2019-02-21T04:28:18.410Z,4.20
2019-02-21T04:30:26.283Z,4.17
2019-02-21T04:32:33.458Z,2.23
2019-02-21T04:34:40.660Z,5.57
2019-02-21T04:36:48.151Z,4.50
2019-02-21T04:38:55.585Z,3.47
2019-02-21T04:41:03.653Z,2.57
2019-02-21T04:43:10.911Z,4.20
2019-02-21T04:45:18.848Z,3.40
2019-02-21T04:47:26.801Z,3.17
2019-02-21T04:49:34.728Z,4.13
2019-02-21T04:51:42.985Z,2.33
2019-02-21T04:53:50.382Z,1.43
2019-02-21T04:55:58.176Z,1.27
2019-02-21T04:58:05.843Z,2.73
2019-02-21T05:00:14.526Z,5.47
2019-02-21T05:02:29.285Z,3.77
2019-02-21T05:04:30.589Z,1.33
2019-02-21T05:06:38.116Z,1.27
2019-02-21T05:08:46.029Z,2.20
2019-02-21T05:10:53.983Z,1.90
2019-02-21T05:13:01.338Z,1.03
2019-02-21T05:15:09.379Z,1.80
2019-02-21T05:17:17.187Z,2.30
2019-02-21T05:19:24.350Z,1.63
2019-02-21T05:21:32.073Z,2.67
2019-02-21T05:23:39.231Z,1.77
2019-02-21T05:25:47.933Z,0.87
2019-02-21T05:28:12.521Z,1.00
2019-02-21T05:30:23.359Z,1.60
2019-02-21T05:32:47.983Z,1.40
2019-02-21T05:35:16.363Z,1.27
2019-02-21T05:37:44.871Z,1.10
2019-02-21T05:40:23.138Z,3.03
2019-02-21T05:42:37.384Z,1.83
2019-02-21T05:44:52.334Z,2.77
2019-02-21T05:47:21.487Z,1.27
2019-02-21T05:49:44.020Z,1.43
2019-02-21T05:52:12.690Z,1.80
2019-02-21T05:54:32.173Z,1.93
2019-02-21T05:57:13.441Z,2.20
2019-02-21T05:59:33.139Z,1.60
2019-02-21T06:01:55.159Z,1.33
2019-02-21T06:04:24.141Z,1.27
2019-02-21T06:06:37.316Z,1.13
2019-02-21T06:09:06.873Z,2.13
2019-02-21T06:11:39.363Z,2.93
2019-02-21T06:14:08.368Z,1.13
2019-02-21T06:16:32.533Z,1.20
2019-02-21T06:18:57.525Z,1.47
2019-02-21T06:21:24.159Z,1.27
2019-02-21T06:23:44.735Z,0.83
2019-02-21T06:26:16.900Z,0.93
2019-02-21T06:28:32.007Z,1.93
2019-02-21T06:30:58.050Z,1.27
2019-02-21T06:33:05.684Z,1.47
2019-02-21T06:35:13.139Z,1.13
2019-02-21T06:37:20.595Z,1.17
2019-02-21T06:39:27.755Z,1.13
2019-02-21T06:41:34.941Z,0.70
2019-02-21T06:43:42.348Z,1.27
2019-02-21T06:45:49.780Z,0.57
2019-02-21T06:47:58.035Z,0.93
2019-02-21T06:50:05.879Z,1.13
2019-02-21T06:52:15.523Z,0.93
2019-02-21T06:54:22.541Z,1.20
2019-02-21T06:56:30.426Z,0.87
2019-02-21T06:58:37.513Z,1.00
2019-02-21T07:00:46.234Z,0.80
2019-02-21T07:02:54.447Z,0.90
2019-02-21T07:05:01.725Z,0.93
2019-02-21T07:07:09.447Z,0.93
2019-02-21T07:09:17.159Z,0.77
2019-02-21T07:11:25.368Z,0.50
2019-02-21T07:13:32.597Z,1.20
2019-02-21T07:15:40.024Z,1.40
2019-02-21T07:17:49.744Z,1.10
2019-02-21T07:19:57.974Z,0.70
2019-02-21T07:22:06.286Z,2.87
2019-02-21T07:24:13.495Z,0.83
2019-02-21T07:26:21.806Z,0.77
2019-02-21T07:28:29.420Z,0.73
2019-02-21T07:30:37.499Z,0.70
2019-02-21T07:32:44.929Z,1.20
2019-02-21T07:34:52.390Z,2.30
2019-02-21T07:36:59.812Z,0.70
2019-02-21T07:39:16.835Z,1.13
2019-02-21T07:41:18.687Z,1.17
2019-02-21T07:43:26.238Z,2.20
2019-02-21T07:45:36.218Z,0.90
2019-02-21T07:47:42.836Z,0.63
2019-02-21T07:49:50.856Z,0.70
2019-02-21T07:51:58.196Z,0.70
2019-02-21T07:54:05.682Z,0.77
2019-02-21T07:56:13.687Z,0.80
2019-02-21T07:58:21.017Z,1.83
2019-02-21T08:00:29.004Z,0.60
2019-02-21T08:02:36.139Z,0.70
2019-02-21T08:04:43.385Z,0.97
2019-02-21T08:06:51.492Z,0.83
2019-02-21T08:08:58.796Z,0.90
2019-02-21T08:11:07.202Z,0.87
2019-02-21T08:13:14.540Z,2.40
2019-02-21T08:15:21.781Z,1.10
2019-02-21T08:17:29.224Z,0.73
2019-02-21T08:19:36.627Z,0.70
2019-02-21T08:21:43.994Z,0.70
2019-02-21T08:23:51.169Z,1.03
2019-02-21T08:25:58.549Z,0.70
2019-02-21T08:28:05.777Z,1.20
2019-02-21T08:30:15.205Z,0.80
2019-02-21T08:32:29.085Z,1.00
2019-02-21T08:34:40.788Z,0.77
2019-02-21T08:36:48.061Z,0.80
2019-02-21T08:38:55.346Z,0.97
2019-02-21T08:41:03.432Z,0.57
2019-02-21T08:43:10.567Z,0.50
2019-02-21T08:45:18.675Z,0.70
2019-02-21T08:47:25.771Z,0.57
2019-02-21T08:49:33.107Z,0.60
2019-02-21T08:51:40.388Z,1.07
2019-02-21T08:53:47.749Z,0.60
2019-02-21T08:55:55.970Z,1.03
2019-02-21T08:58:03.401Z,0.90
2019-02-21T09:00:12.167Z,1.27
2019-02-21T09:02:19.191Z,0.83
2019-02-21T09:04:27.781Z,0.73
2019-02-21T09:06:35.069Z,0.77
2019-02-21T09:08:42.452Z,0.80
2019-02-21T09:10:49.629Z,0.90
2019-02-21T09:12:56.801Z,0.80
2019-02-21T09:15:04.596Z,0.70
2019-02-21T09:17:11.765Z,0.50
2019-02-21T09:19:18.995Z,0.70
2019-02-21T09:21:26.362Z,0.70
2019-02-21T09:23:33.985Z,0.60
2019-02-21T09:27:54.689Z,0.73
2019-02-21T09:30:01.929Z,0.63
2019-02-21T09:32:09.163Z,0.60
2019-02-21T09:34:21.083Z,0.60
2019-02-21T09:36:25.536Z,0.60
2019-02-21T09:38:34.713Z,0.67
2019-02-21T09:40:42.807Z,0.63
2019-02-21T09:42:51.047Z,0.60
2019-02-21T09:44:58.852Z,0.67
2019-02-21T09:47:06.027Z,0.90
2019-02-21T09:49:14.185Z,0.53
2019-02-21T09:51:21.460Z,1.63
2019-02-21T09:53:29.176Z,0.60
2019-02-21T09:55:37.056Z,0.80
2019-02-21T09:57:44.495Z,0.70
2019-02-21T09:59:51.912Z,0.53
2019-02-21T10:01:59.428Z,1.10
2019-02-21T10:04:06.521Z,0.90
2019-02-21T10:06:13.827Z,0.60
2019-02-21T10:08:21.950Z,0.97
2019-02-21T10:10:29.524Z,0.70
2019-02-21T10:12:36.581Z,0.50
2019-02-21T10:14:43.780Z,0.70
2019-02-21T10:16:51.720Z,0.60
2019-02-21T10:18:59.543Z,0.97
2019-02-21T10:21:06.843Z,1.27
2019-02-21T10:23:14.251Z,0.70
2019-02-21T10:25:23.627Z,0.80
2019-02-21T10:27:31.225Z,0.50
2019-02-21T10:29:38.668Z,0.60
2019-02-21T10:31:45.746Z,0.63
2019-02-21T10:33:53.040Z,0.50
2019-02-21T10:36:00.687Z,1.10
2019-02-21T10:38:08.426Z,0.60
2019-02-21T10:40:15.779Z,0.67
2019-02-21T10:42:23.570Z,0.70
2019-02-21T10:44:31.112Z,0.60
2019-02-21T10:46:38.403Z,0.60
2019-02-21T10:48:45.535Z,0.87
2019-02-21T10:50:53.674Z,0.90
2019-02-21T10:53:01.612Z,0.93
2019-02-21T10:55:09.252Z,0.70
2019-02-21T10:57:16.722Z,0.70
2019-02-21T10:59:24.140Z,0.80
2019-02-21T11:01:31.269Z,0.70
2019-02-21T11:03:38.583Z,0.70
2019-02-21T11:05:45.947Z,0.93
2019-02-21T11:07:53.806Z,0.70
2019-02-21T11:10:01.092Z,0.73
2019-02-21T11:12:08.428Z,0.80
2019-02-21T11:14:15.711Z,1.07
2019-02-21T11:16:22.789Z,0.80
2019-02-21T11:18:30.661Z,0.80
2019-02-21T11:20:37.923Z,0.80
2019-02-21T11:22:45.220Z,0.60
2019-02-21T11:24:53.501Z,1.13
2019-02-21T11:27:00.826Z,0.50
2019-02-21T11:29:08.821Z,0.60
2019-02-21T11:31:16.227Z,0.80
2019-02-21T11:33:23.598Z,0.60
2019-02-21T11:35:31.580Z,0.60
2019-02-21T11:37:43.321Z,0.50
2019-02-21T11:39:49.254Z,0.80
2019-02-21T11:41:57.245Z,0.50
2019-02-21T11:44:04.462Z,1.03
2019-02-21T11:46:12.387Z,0.87
2019-02-21T11:48:20.418Z,0.60
2019-02-21T11:50:27.639Z,0.53
2019-02-21T11:52:37.817Z,1.00
2019-02-21T11:54:45.081Z,0.67
2019-02-21T11:56:52.502Z,0.80
2019-02-21T11:58:59.903Z,0.70
2019-02-21T12:01:10.257Z,0.60
2019-02-21T12:03:18.016Z,0.63
2019-02-21T12:05:31.347Z,0.70
2019-02-21T12:07:35.385Z,0.80
2019-02-21T12:09:42.728Z,0.83
2019-02-21T12:11:49.749Z,0.83
2019-02-21T12:13:56.829Z,0.70
2019-02-21T12:16:05.475Z,0.77
2019-02-21T12:18:13.586Z,0.60
2019-02-21T12:20:21.206Z,0.70
2019-02-21T12:22:28.386Z,0.60
2019-02-21T12:24:35.694Z,0.53
2019-02-21T12:26:42.735Z,0.53
2019-02-21T12:28:50.634Z,0.53
2019-02-21T12:30:57.739Z,0.50
2019-02-21T12:33:05.710Z,0.60
2019-02-21T12:35:13.381Z,0.63
2019-02-21T12:37:20.575Z,0.60
2019-02-21T12:39:28.092Z,0.60
2019-02-21T12:41:35.987Z,0.60
2019-02-21T12:43:43.756Z,0.50
2019-02-21T12:45:52.701Z,0.50
2019-02-21T12:48:00.052Z,0.50
2019-02-21T12:50:07.445Z,0.50
2019-02-21T12:52:14.686Z,0.63
2019-02-21T12:54:25.628Z,0.50
2019-02-21T12:56:33.603Z,0.50
2019-02-21T12:58:40.936Z,0.70
2019-02-21T13:00:48.854Z,0.50
2019-02-21T13:02:56.368Z,0.60
2019-02-21T13:05:03.642Z,0.60
2019-02-21T13:07:10.803Z,0.57
2019-02-21T13:09:19.646Z,0.87
2019-02-21T13:11:26.840Z,0.50
2019-02-21T13:13:34.298Z,0.60
2019-02-21T13:15:42.068Z,0.93
2019-02-21T13:17:51.068Z,0.50
2019-02-21T13:19:58.339Z,0.50
2019-02-21T13:22:06.391Z,0.50
2019-02-21T13:24:14.586Z,0.60
2019-02-21T13:26:22.100Z,0.60
2019-02-21T13:28:29.253Z,0.47
2019-02-21T13:30:37.084Z,0.50
2019-02-21T13:32:44.988Z,0.50
2019-02-21T13:34:53.219Z,0.73
2019-02-21T13:37:00.707Z,0.60
2019-02-21T13:39:09.792Z,0.60
2019-02-21T13:41:17.391Z,1.73
2019-02-21T13:43:24.926Z,3.57
2019-02-21T13:45:32.157Z,3.53
2019-02-21T13:47:39.804Z,0.63
2019-02-21T13:49:47.058Z,0.40
2019-02-21T13:51:55.147Z,0.60
2019-02-21T13:54:02.620Z,2.70
2019-02-21T13:56:09.895Z,1.87
2019-02-21T13:58:19.743Z,1.20
2019-02-21T14:00:26.929Z,1.23
2019-02-21T14:02:35.603Z,3.33
2019-02-21T14:04:44.972Z,1.00
2019-02-21T14:06:52.817Z,5.23
2019-02-21T14:09:00.387Z,3.70
2019-02-21T14:11:07.966Z,18.70
2019-02-21T14:13:15.699Z,4.67
2019-02-21T14:15:24.468Z,3.47
2019-02-21T14:17:32.683Z,2.10
2019-02-21T14:21:54.727Z,2.13
2019-02-21T14:24:01.748Z,1.63
2019-02-21T14:26:08.527Z,2.93
2019-02-21T14:28:16.222Z,1.97
2019-02-21T14:30:23.563Z,4.07
2019-02-21T14:32:31.621Z,3.77
2019-02-21T14:34:39.472Z,3.63
2019-02-21T14:36:46.790Z,3.37
2019-02-21T14:38:54.082Z,4.00
2019-02-21T14:41:01.407Z,3.53
2019-02-21T14:43:08.994Z,4.47
2019-02-21T14:45:17.763Z,2.80
2019-02-21T14:47:26.055Z,2.67
2019-02-21T14:49:33.573Z,1.47
2019-02-21T14:51:41.551Z,1.60
2019-02-21T14:53:49.622Z,2.07
2019-02-21T14:55:56.905Z,4.37
2019-02-21T14:58:04.309Z,4.50
2019-02-21T15:00:15.269Z,3.27
2019-02-21T15:02:23.328Z,5.17
2019-02-21T15:04:31.364Z,3.03
2019-02-21T15:06:39.756Z,3.17
2019-02-21T15:08:47.933Z,3.43
2019-02-21T15:10:55.434Z,3.70
2019-02-21T15:13:03.702Z,2.33
2019-02-21T15:15:11.918Z,3.47
2019-02-21T15:17:19.073Z,2.90
2019-02-21T15:19:26.612Z,1.80
2019-02-21T15:21:34.662Z,5.80
2019-02-21T15:23:42.018Z,4.43
2019-02-21T15:25:49.771Z,1.20
2019-02-21T15:27:57.851Z,3.77
2019-02-21T15:30:05.110Z,3.17
2019-02-21T15:32:14.295Z,4.30
2019-02-21T15:34:21.541Z,4.00
2019-02-21T15:36:37.882Z,1.63
2019-02-21T15:38:38.451Z,1.57
2019-02-21T15:40:45.551Z,1.77
2019-02-21T15:42:53.010Z,3.17
2019-02-21T15:45:00.619Z,1.67
2019-02-21T15:47:09.872Z,2.80
2019-02-21T15:49:17.190Z,2.37
2019-02-21T15:51:25.741Z,2.97
2019-02-21T15:53:33.224Z,2.40
2019-02-21T15:55:41.973Z,0.73
2019-02-21T15:57:49.429Z,5.10
2019-02-21T15:59:56.510Z,2.50
2019-02-21T16:02:03.658Z,2.00
2019-02-21T16:04:10.980Z,1.33
2019-02-21T16:06:18.338Z,3.00
2019-02-21T16:08:25.664Z,2.37
2019-02-21T16:10:33.026Z,2.97
2019-02-21T16:12:40.634Z,2.00
2019-02-21T16:14:49.167Z,1.20
2019-02-21T16:16:57.275Z,0.80
2019-02-21T16:19:04.716Z,1.43
2019-02-21T16:21:11.894Z,1.73
2019-02-21T16:23:19.451Z,1.60
2019-02-21T16:25:26.980Z,1.53
2019-02-21T16:27:34.874Z,1.80
2019-02-21T16:29:42.101Z,1.57
2019-02-21T16:31:49.288Z,1.37
2019-02-21T16:33:56.511Z,2.13
2019-02-21T16:36:03.927Z,3.63
2019-02-21T16:38:11.292Z,4.17
2019-02-21T16:40:18.773Z,2.77
2019-02-21T16:42:26.252Z,2.50
2019-02-21T16:44:34.259Z,3.73
2019-02-21T16:46:41.783Z,1.00
2019-02-21T16:48:49.191Z,2.80
2019-02-21T16:50:56.378Z,1.93
2019-02-21T16:53:03.650Z,2.10
2019-02-21T16:55:13.188Z,5.17
2019-02-21T16:57:20.468Z,2.10
2019-02-21T16:59:27.828Z,1.17
2019-02-21T17:01:35.057Z,1.70
2019-02-21T17:03:43.074Z,1.60
2019-02-21T17:05:51.205Z,1.43
2019-02-21T17:07:58.329Z,1.70
2019-02-21T17:10:06.210Z,0.93
2019-02-21T17:12:13.798Z,1.23
2019-02-21T17:14:22.254Z,1.27
2019-02-21T17:16:29.584Z,1.40
2019-02-21T17:18:36.745Z,1.30
2019-02-21T17:20:44.855Z,0.83
2019-02-21T17:22:52.055Z,1.67
2019-02-21T17:24:59.342Z,2.07
2019-02-21T17:27:12.692Z,1.10
2019-02-21T17:29:20.233Z,1.43
2019-02-21T17:31:27.637Z,2.00
2019-02-21T17:33:35.050Z,2.47
2019-02-21T17:35:42.866Z,1.57
2019-02-21T17:37:50.161Z,1.47
2019-02-21T17:39:57.352Z,2.43
2019-02-21T17:42:04.679Z,1.53
2019-02-21T17:44:12.079Z,1.57
2019-02-21T17:46:29.881Z,2.10
2019-02-21T17:48:38.320Z,2.60
2019-02-21T17:50:45.425Z,1.87
2019-02-21T17:52:52.610Z,1.93
2019-02-21T17:55:00.041Z,2.30
2019-02-21T17:57:07.383Z,1.10
2019-02-21T17:59:14.887Z,0.97
2019-02-21T18:01:23.145Z,1.90
2019-02-21T18:03:33.727Z,0.93
2019-02-21T18:05:40.200Z,1.87
2019-02-21T18:07:47.700Z,1.70
2019-02-21T18:09:54.901Z,0.57
2019-02-21T18:12:02.456Z,1.43
2019-02-21T18:14:09.800Z,1.70
2019-02-21T18:16:17.120Z,0.70
2019-02-21T18:18:24.602Z,0.80
2019-02-21T18:20:32.685Z,1.20
2019-02-21T18:22:40.031Z,1.43
2019-02-21T18:24:47.473Z,0.97
2019-02-21T18:26:54.928Z,2.30
2019-02-21T18:29:02.141Z,1.93
2019-02-21T18:31:09.279Z,1.90
2019-02-21T18:33:16.608Z,2.53
2019-02-21T18:35:24.005Z,3.67
2019-02-21T18:37:31.314Z,1.77
2019-02-21T18:39:39.008Z,4.87
2019-02-21T18:41:46.190Z,7.97
2019-02-21T18:43:53.603Z,7.37
2019-02-21T18:46:11.184Z,7.43
2019-02-21T18:48:18.901Z,10.83
2019-02-21T18:50:37.402Z,12.43
2019-02-21T18:52:35.551Z,8.50
2019-02-21T18:54:42.997Z,9.67
2019-02-21T18:56:50.869Z,6.83
2019-02-21T18:58:59.865Z,7.63
2019-02-21T19:01:15.802Z,7.77
2019-02-21T19:03:42.149Z,8.27
2019-02-21T19:08:49.080Z,6.80
2019-02-21T19:10:56.506Z,8.17
2019-02-21T19:13:03.928Z,4.93
2019-02-21T19:15:11.151Z,4.73
2019-02-21T19:17:19.775Z,6.43
2019-02-21T19:19:27.238Z,6.20
2019-02-21T19:21:43.190Z,6.43
2019-02-21T19:23:52.496Z,6.53
2019-02-21T19:28:43.699Z,8.27
2019-02-21T19:31:06.944Z,4.77
2019-02-21T19:33:22.015Z,6.07
2019-02-21T19:35:58.204Z,6.10
2019-02-21T19:38:17.452Z,9.00
2019-02-21T19:40:51.225Z,8.97
2019-02-21T19:43:06.305Z,9.63
2019-02-21T19:45:44.994Z,8.93
2019-02-21T19:47:55.814Z,8.47
2019-02-21T19:50:15.953Z,12.90
2019-02-21T19:52:36.511Z,9.07
2019-02-21T19:54:44.431Z,10.97
2019-02-21T20:00:43.809Z,11.93
2019-02-21T20:03:04.452Z,10.60
2019-02-21T20:05:12.282Z,11.63
2019-02-21T20:07:55.685Z,9.43
2019-02-21T20:10:10.143Z,10.83
2019-02-21T20:12:43.052Z,11.83
2019-02-21T20:14:51.511Z,13.33
2019-02-21T20:17:01.262Z,16.47
2019-02-21T20:19:18.427Z,13.40
2019-02-21T20:22:17.093Z,12.47
2019-02-21T20:24:16.568Z,13.50
2019-02-21T20:26:31.078Z,14.70
2019-02-21T20:28:44.272Z,10.90
2019-02-21T20:30:58.217Z,12.87
2019-02-21T20:34:42.606Z,10.57
2019-02-21T20:35:32.763Z,10.67
2019-02-21T20:37:39.718Z,8.97
2019-02-21T20:39:48.633Z,9.80
2019-02-21T20:41:57.651Z,7.73
2019-02-21T20:44:05.963Z,7.90
2019-02-21T20:46:13.739Z,8.77
2019-02-21T20:48:20.942Z,6.47
2019-02-21T20:50:28.005Z,5.67
2019-02-21T20:52:35.612Z,9.23
2019-02-21T20:54:43.098Z,8.90
2019-02-21T20:56:50.687Z,8.30
2019-02-21T20:58:58.113Z,6.37
2019-02-21T21:01:07.160Z,11.30
2019-02-21T21:03:34.364Z,11.10
2019-02-21T21:08:09.107Z,10.30
2019-02-21T21:10:24.762Z,6.60
2019-02-21T21:12:53.926Z,7.07
2019-02-21T21:14:59.089Z,6.70
2019-02-21T21:17:34.766Z,11.03
2019-02-21T21:19:45.612Z,7.07
2019-02-21T21:21:59.207Z,9.43
2019-02-21T21:24:36.839Z,11.67
2019-02-21T21:26:46.469Z,8.90
2019-02-21T21:29:08.953Z,8.47
2019-02-21T21:31:32.287Z,6.00
2019-02-21T21:33:49.941Z,7.63
2019-02-21T21:36:12.288Z,6.07
2019-02-21T21:38:27.419Z,9.53
2019-02-21T21:40:34.887Z,7.10
2019-02-21T21:42:48.602Z,9.17
2019-02-21T21:44:56.377Z,4.77
2019-02-21T21:47:08.043Z,7.53
2019-02-21T21:49:21.132Z,3.63
2019-02-21T21:51:42.558Z,6.07
2019-02-21T21:53:51.379Z,4.20
2019-02-21T21:56:04.058Z,8.10
2019-02-21T21:58:22.649Z,7.17
2019-02-21T22:00:38.523Z,5.63
2019-02-21T22:02:57.839Z,4.50
2019-02-21T22:05:04.977Z,6.00
2019-02-21T22:07:50.657Z,7.37
2019-02-21T22:10:03.505Z,5.50
2019-02-21T22:12:33.858Z,3.83
2019-02-21T22:14:42.858Z,3.10
2019-02-21T22:17:07.034Z,6.43
2019-02-21T22:19:23.264Z,3.80
2019-02-21T22:21:29.975Z,5.90
2019-02-21T22:23:47.295Z,3.73
2019-02-21T22:25:53.508Z,4.50
2019-02-21T22:28:13.305Z,4.73
2019-02-21T22:30:34.860Z,4.30
2019-02-21T22:32:57.553Z,4.50
2019-02-21T22:35:04.829Z,4.50
2019-02-21T22:37:12.231Z,5.27
2019-02-21T22:39:20.389Z,3.53
2019-02-21T22:41:28.260Z,3.87
2019-02-21T22:43:36.331Z,3.33
2019-02-21T22:45:43.843Z,6.00
2019-02-21T22:47:51.247Z,3.20
2019-02-21T22:52:54.382Z,4.60
2019-02-21T22:55:09.408Z,4.37
2019-02-21T22:57:11.981Z,4.33
2019-02-21T22:59:19.761Z,3.13
2019-02-21T23:01:33.492Z,4.23
2019-02-21T23:03:45.502Z,4.57
2019-02-21T23:06:39.932Z,3.73
2019-02-21T23:10:20.075Z,3.67
2019-02-21T23:11:59.299Z,5.17
2019-02-21T23:14:20.515Z,4.40
2019-02-21T23:16:27.833Z,3.87
2019-02-21T23:18:36.398Z,4.00
2019-02-21T23:20:44.437Z,4.63
2019-02-21T23:22:51.637Z,3.23
2019-02-21T23:24:58.827Z,3.03
2019-02-21T23:27:06.193Z,2.27
2019-02-21T23:29:13.656Z,5.50
2019-02-21T23:31:21.319Z,3.20
2019-02-21T23:33:29.628Z,3.77
2019-02-21T23:35:36.907Z,2.90
2019-02-21T23:37:44.265Z,4.23
2019-02-21T23:39:51.629Z,2.77
2019-02-21T23:41:58.786Z,3.07
2019-02-21T23:44:06.045Z,2.77
2019-02-21T23:46:13.901Z,2.57
2019-02-21T23:48:21.259Z,3.07
2019-02-21T23:50:29.245Z,3.77
2019-02-21T23:52:36.341Z,3.40
2019-02-21T23:54:43.778Z,2.43
2019-02-21T23:56:51.263Z,4.00
2019-02-21T23:58:59.159Z,4.70
